Time;durP1;ratioP1;P1;durP2;ratioP2;P2;SDS_P1;SDS_P2;PMS_P1;PMS_P2;Temp;Humidity;BMP_temperature;BMP_pressure;BME280_temperature;BME280_humidity;BME280_pressure;Samples;Min_cycle;Max_cycle;Signal;HPM_P1;HPM_P2
2022/12/17 13:06:06;;;;;;;;;;;;;;;-3.32;64.40;98888.00;5017274;28;19925;-59
2022/12/17 13:08:34;;;;;;;;;;;;;;;-3.20;63.89;98893.56;5015682;28;20322;-59
2022/12/17 13:11:10;;;;;;;;;;;;;;;-3.22;63.37;98892.94;5016706;28;19937;-59
2022/12/17 13:13:40;;;;;;;;;;;;;;;-3.29;63.54;98902.75;5017901;28;19937;-60
2022/12/17 13:16:28;;;;;;;;;;;;;;;-3.25;64.34;98904.81;5018236;28;20003;-59
2022/12/17 13:19:01;;;;;;;;;;;;;;;-3.28;64.02;98904.38;5025568;28;20275;-59
2022/12/17 13:21:30;;;;;;;;;;;;;;;-3.36;64.52;98905.34;5013540;28;20371;-59
2022/12/17 13:24:00;;;;;;;;;;;;;;;-3.19;64.25;98903.19;5017585;28;19929;-58
2022/12/17 13:26:30;;;;;;;;;;;;;;;-3.23;63.29;98902.75;5014923;28;19936;-60
2022/12/17 13:29:03;;;;;;;;;;;;;;;-3.36;64.10;98902.69;5016965;28;19964;-59
2022/12/17 13:32:05;;;;;;;;;;;;;;;-3.46;64.66;98902.25;5015066;28;19955;-59
2022/12/17 13:34:37;;;;;;;;;;;;;;;-3.40;64.62;98905.97;5015166;28;20291;-58
2022/12/17 13:37:06;;;;;;;;;;;;;;;-3.45;64.40;98906.56;5021908;28;19939;-59
2022/12/17 13:39:38;;;;;;;;;;;;;;;-3.42;64.88;98911.47;5014379;28;19962;-58
2022/12/17 13:42:31;;;;;;;;;;;;;;;-3.40;64.65;98916.59;5015552;28;19936;-58
2022/12/17 13:45:25;;;;;;;;;;;;;;;-3.36;65.02;98923.94;5017896;28;19933;-59
2022/12/17 13:47:58;;;;;;;;;;;;;;;-3.39;65.21;98929.69;5020798;28;20002;-59
2022/12/17 13:50:28;;;;;;;;;;;;;;;-3.40;65.27;98936.00;5040370;28;19955;-59
2022/12/17 13:53:27;;;;;;;;;;;;;;;-3.43;65.24;98933.72;5048529;28;20373;-59
2022/12/17 13:55:57;;;;;;;;;;;;;;;-3.49;65.30;98931.88;5049535;28;19982;-59
2022/12/17 13:58:26;;;;;;;;;;;;;;;-3.51;66.19;98932.06;5053185;28;20399;-59
2022/12/17 14:01:04;;;;;;;;;;;;;;;-3.49;65.91;98938.00;5053480;28;19970;-59
2022/12/17 14:03:33;;;;;;;;;;;;;;;-3.49;64.85;98935.34;5046322;28;19974;-59
2022/12/17 14:06:47;;;;;;;;;;;;;;;-3.51;65.56;98944.53;5047031;28;19939;-59
2022/12/17 14:09:16;;;;;;;;;;;;;;;-3.58;65.78;98952.44;5050492;28;20357;-58
2022/12/17 14:14:32;;;;;;;;;;;;;;;-3.61;66.14;98952.03;5051438;28;20338;-58
2022/12/17 14:17:01;;;;;;;;;;;;;;;-3.57;65.34;98959.41;5045055;28;19924;-59
2022/12/17 14:19:30;;;;;;;;;;;;;;;-3.64;66.26;98957.72;5046347;28;20374;-58
2022/12/17 14:21:58;;;;;;;;;;;;;;;-3.54;65.88;98960.84;5050528;28;19924;-61
2022/12/17 14:24:28;;;;;;;;;;;;;;;-3.57;65.41;98969.19;5045095;28;19932;-59
2022/12/17 14:26:57;;;;;;;;;;;;;;;-3.58;65.98;98972.88;5043568;28;19932;-58
2022/12/17 14:29:26;;;;;;;;;;;;;;;-3.65;66.41;98977.31;5044717;28;19925;-61
2022/12/17 14:31:56;;;;;;;;;;;;;;;-3.70;66.99;98976.06;5043894;28;19932;-60
2022/12/17 14:34:24;;;;;;;;;;;;;;;-3.81;67.35;98973.94;5047333;28;19933;-61
2022/12/17 14:36:59;;;;;;;;;;;;;;;-3.85;67.17;98972.69;5052860;28;20300;-61
2022/12/17 14:39:53;;;;;;;;;;;;;;;-3.81;66.18;98973.13;5047155;28;20266;-60
2022/12/17 14:42:25;;;;;;;;;;;;;;;-3.80;67.16;98967.63;5064840;28;19932;-58
2022/12/17 14:44:55;;;;;;;;;;;;;;;-3.92;67.42;98976.31;5047741;28;20293;-61
2022/12/17 14:47:48;;;;;;;;;;;;;;;-3.87;67.81;98973.91;5048728;28;19925;-59
2022/12/17 14:50:25;;;;;;;;;;;;;;;-3.96;67.86;98967.91;5055843;28;19962;-59
2022/12/17 14:52:55;;;;;;;;;;;;;;;-4.03;67.90;98973.16;5062473;28;19924;-61
2022/12/17 14:55:26;;;;;;;;;;;;;;;-4.06;68.45;98978.84;5070186;28;19928;-58
2022/12/17 14:57:55;;;;;;;;;;;;;;;-4.05;67.62;98972.53;5069215;28;19925;-62
2022/12/17 15:00:22;;;;;;;;;;;;;;;-3.86;66.64;98978.19;5070033;28;19931;-58
2022/12/17 15:02:51;;;;;;;;;;;;;;;-4.01;67.46;98973.78;5047066;28;19929;-58
2022/12/17 15:05:20;;;;;;;;;;;;;;;-4.10;66.91;98977.59;5066575;28;20002;-58
2022/12/17 15:07:48;;;;;;;;;;;;;;;-4.07;67.06;98979.84;5068566;28;19932;-59
2022/12/17 15:10:19;;;;;;;;;;;;;;;-4.12;67.46;98978.78;5076706;28;19963;-58
2022/12/17 15:12:50;;;;;;;;;;;;;;;-4.20;68.43;98989.53;5067901;28;19936;-59
2022/12/17 15:15:20;;;;;;;;;;;;;;;-4.34;68.32;98981.44;5070173;28;19932;-59
2022/12/17 15:17:49;;;;;;;;;;;;;;;-4.28;68.55;98988.63;5068553;28;20358;-59
2022/12/17 15:20:18;;;;;;;;;;;;;;;-4.33;68.67;98991.03;5052040;28;19933;-59
2022/12/17 15:22:47;;;;;;;;;;;;;;;-4.31;68.46;98998.84;5050807;28;19924;-59
2022/12/17 15:25:16;;;;;;;;;;;;;;;-4.37;69.15;99005.69;5065796;28;19985;-59
2022/12/17 15:27:47;;;;;;;;;;;;;;;-4.43;69.24;98998.47;5063801;28;19925;-59
2022/12/17 15:30:18;;;;;;;;;;;;;;;-4.48;69.85;99008.84;5062019;28;19974;-59
2022/12/17 15:32:47;;;;;;;;;;;;;;;-4.61;69.95;99006.06;5067253;28;19977;-59
2022/12/17 15:35:16;;;;;;;;;;;;;;;-4.61;70.02;99008.72;5065541;28;19933;-58
2022/12/17 15:37:44;;;;;;;;;;;;;;;-4.51;69.57;99003.91;5065904;28;19932;-58
2022/12/17 15:40:13;;;;;;;;;;;;;;;-4.58;69.76;99013.63;5068991;28;20336;-59
2022/12/17 15:43:10;;;;;;;;;;;;;;;-4.64;70.07;99014.38;5067205;28;19936;-59
2022/12/17 15:45:39;;;;;;;;;;;;;;;-4.68;70.09;99013.94;5057178;28;19986;-59
2022/12/17 15:48:09;;;;;;;;;;;;;;;-4.66;70.26;99006.59;5066273;28;20019;-59
2022/12/17 15:51:02;;;;;;;;;;;;;;;-4.72;70.48;99011.84;5058207;28;20038;-58
2022/12/17 15:53:31;;;;;;;;;;;;;;;-4.72;70.80;99002.06;5059676;28;19924;-59
2022/12/17 15:56:00;;;;;;;;;;;;;;;-4.78;70.94;99008.09;5046553;28;19928;-59
2022/12/17 15:58:30;;;;;;;;;;;;;;;-4.77;70.63;98994.66;5048449;28;19931;-58
2022/12/17 16:00:58;;;;;;;;;;;;;;;-4.78;71.04;99002.81;5051934;28;19962;-59
2022/12/17 16:03:26;;;;;;;;;;;;;;;-4.81;70.99;98996.03;5064768;28;19948;-59
2022/12/17 16:05:54;;;;;;;;;;;;;;;-4.79;71.27;98999.34;5069468;28;20593;-62
2022/12/17 16:08:24;;;;;;;;;;;;;;;-4.84;71.46;98999.06;5065851;28;19940;-59
2022/12/17 16:10:53;;;;;;;;;;;;;;;-4.88;71.12;99004.91;5067121;28;19924;-59
2022/12/17 16:13:28;;;;;;;;;;;;;;;-4.90;72.04;99010.41;5066268;28;19999;-58
2022/12/17 16:15:59;;;;;;;;;;;;;;;-4.88;71.77;99008.38;5065950;28;19924;-60
2022/12/17 16:18:30;;;;;;;;;;;;;;;-4.88;71.63;99011.03;5067705;28;19924;-59
2022/12/17 16:21:01;;;;;;;;;;;;;;;-4.91;71.68;99014.03;5065447;28;19929;-60
2022/12/17 16:23:29;;;;;;;;;;;;;;;-4.93;71.74;99016.06;5067838;28;19925;-59
2022/12/17 16:25:58;;;;;;;;;;;;;;;-4.94;71.65;99014.44;5064823;28;19924;-59
2022/12/17 16:28:29;;;;;;;;;;;;;;;-4.95;71.43;99018.09;5062542;28;19932;-59
2022/12/17 16:30:59;;;;;;;;;;;;;;;-4.97;72.38;99014.78;5061157;28;19940;-60
2022/12/17 16:33:31;;;;;;;;;;;;;;;-4.98;71.93;99012.34;5068508;28;19947;-59
2022/12/17 16:36:03;;;;;;;;;;;;;;;-5.02;72.33;99011.88;5066148;28;19928;-58
2022/12/17 16:38:32;;;;;;;;;;;;;;;-4.96;71.88;99019.06;5069981;28;19939;-59
2022/12/17 16:41:02;;;;;;;;;;;;;;;-4.97;72.71;99021.94;5044283;28;19925;-58
2022/12/17 16:43:33;;;;;;;;;;;;;;;-4.96;72.73;99024.38;5067264;28;19928;-59
2022/12/17 16:46:04;;;;;;;;;;;;;;;-4.97;72.36;99025.38;5066744;28;20010;-58
2022/12/17 16:49:04;;;;;;;;;;;;;;;-4.96;71.60;99032.34;5061010;28;19928;-60
2022/12/17 16:51:32;;;;;;;;;;;;;;;-4.93;72.27;99029.31;5060579;28;19936;-58
2022/12/17 16:57:19;;;;;;;;;;;;;;;-4.92;71.82;99038.09;5065126;28;19936;-58
2022/12/17 16:59:51;;;;;;;;;;;;;;;-4.97;72.37;99036.00;5050575;28;19925;-60
2022/12/17 17:02:21;;;;;;;;;;;;;;;-5.04;72.52;99037.75;5061602;28;19925;-58
2022/12/17 17:04:50;;;;;;;;;;;;;;;-5.04;72.38;99040.41;5062949;28;20416;-58
2022/12/17 17:07:18;;;;;;;;;;;;;;;-5.08;71.90;99029.31;5062768;28;19924;-59
2022/12/17 17:09:49;;;;;;;;;;;;;;;-5.09;72.47;99037.47;5065018;28;19931;-58
2022/12/17 17:12:18;;;;;;;;;;;;;;;-5.13;72.21;99041.47;5046464;28;19928;-59
2022/12/17 17:14:52;;;;;;;;;;;;;;;-5.17;72.46;99048.16;5047554;28;19933;-57
2022/12/17 17:17:23;;;;;;;;;;;;;;;-5.22;72.92;99045.22;5066207;28;19925;-57
2022/12/17 17:20:11;;;;;;;;;;;;;;;-5.22;72.71;99043.41;5066393;28;19947;-56
2022/12/17 17:22:39;;;;;;;;;;;;;;;-5.30;72.96;99048.78;5052207;28;20438;-56
2022/12/17 17:25:08;;;;;;;;;;;;;;;-5.37;73.09;99051.34;5067023;28;19925;-56
2022/12/17 17:27:36;;;;;;;;;;;;;;;-5.31;73.15;99055.09;5070848;28;19951;-61
2022/12/17 17:30:32;;;;;;;;;;;;;;;-5.32;73.46;99053.47;5068879;28;19925;-58
2022/12/17 17:33:02;;;;;;;;;;;;;;;-5.33;73.66;99060.56;5067404;28;19928;-57
2022/12/17 17:35:31;;;;;;;;;;;;;;;-5.32;73.23;99069.34;5050276;28;19925;-58
2022/12/17 17:37:59;;;;;;;;;;;;;;;-5.37;73.11;99069.06;5070672;28;19924;-57
2022/12/17 17:40:29;;;;;;;;;;;;;;;-5.42;73.89;99074.91;5069303;28;19955;-57
2022/12/17 17:42:58;;;;;;;;;;;;;;;-5.30;74.15;99067.34;5071014;28;20282;-58
2022/12/17 17:45:27;;;;;;;;;;;;;;;-5.25;73.83;99080.03;5067931;28;19925;-57
2022/12/17 17:47:58;;;;;;;;;;;;;;;-5.36;74.22;99078.66;5069392;28;20343;-56
2022/12/17 17:50:28;;;;;;;;;;;;;;;-5.33;74.52;99079.09;5069021;28;20046;-58
2022/12/17 17:52:57;;;;;;;;;;;;;;;-5.28;75.09;99089.16;5068591;28;20437;-57
2022/12/17 17:55:29;;;;;;;;;;;;;;;-5.25;75.18;99087.97;5068973;28;19924;-57
2022/12/17 17:57:58;;;;;;;;;;;;;;;-5.24;74.95;99097.56;5068060;28;19943;-62
2022/12/17 18:00:29;;;;;;;;;;;;;;;-5.29;74.52;99098.09;5068472;28;20011;-58
2022/12/17 18:02:58;;;;;;;;;;;;;;;-5.24;75.40;99098.38;5074649;28;20950;-57
2022/12/17 18:05:28;;;;;;;;;;;;;;;-5.38;76.53;99107.97;5062376;28;19925;-57
2022/12/17 18:07:59;;;;;;;;;;;;;;;-5.25;76.79;99106.53;5062283;28;19982;-57
2022/12/17 18:10:35;;;;;;;;;;;;;;;-5.27;76.42;99107.53;5068404;28;19928;-57
2022/12/17 18:15:59;;;;;;;;;;;;;;;-5.33;76.08;99113.53;5066792;28;19943;-58
2022/12/17 18:18:28;;;;;;;;;;;;;;;-5.30;75.95;99118.47;5047339;28;20672;-57
2022/12/17 18:21:03;;;;;;;;;;;;;;;-5.49;75.86;99121.63;5050037;28;19933;-57
2022/12/17 18:23:32;;;;;;;;;;;;;;;-5.38;75.72;99118.56;5063254;28;19925;-61
2022/12/17 18:26:07;;;;;;;;;;;;;;;-5.37;75.57;99114.91;5068843;28;19939;-57
2022/12/17 18:28:36;;;;;;;;;;;;;;;-5.41;75.34;99113.63;5069678;28;19928;-57
2022/12/17 18:31:05;;;;;;;;;;;;;;;-5.50;75.08;99106.75;5069752;28;19968;-57
2022/12/17 18:33:34;;;;;;;;;;;;;;;-5.61;75.27;99109.81;5069433;28;19998;-61
2022/12/17 18:36:10;;;;;;;;;;;;;;;-5.60;75.77;99114.09;5070006;28;19978;-62
2022/12/17 18:38:40;;;;;;;;;;;;;;;-5.62;75.37;99114.28;5049448;28;20541;-58
2022/12/17 18:43:22;;;;;;;;;;;;;;;-5.58;74.99;99106.81;5063690;28;19932;-57
2022/12/17 18:43:57;;;;;;;;;;;;;;;-5.62;74.49;99118.75;5065702;28;19924;-58
2022/12/17 18:46:26;;;;;;;;;;;;;;;-5.81;75.21;99120.06;5067534;28;20002;-57
2022/12/17 18:48:57;;;;;;;;;;;;;;;-5.72;74.81;99123.47;5067282;28;20304;-57
2022/12/17 18:51:27;;;;;;;;;;;;;;;-5.95;74.61;99126.16;5063463;28;20308;-57
2022/12/17 18:53:57;;;;;;;;;;;;;;;-5.84;75.28;99121.25;5050331;28;20401;-59
2022/12/17 18:56:26;;;;;;;;;;;;;;;-5.80;75.02;99124.38;5065680;28;19932;-59
2022/12/17 18:59:15;;;;;;;;;;;;;;;-5.85;75.11;99122.25;5070176;28;19974;-57
2022/12/17 19:01:46;;;;;;;;;;;;;;;-5.88;75.30;99127.06;5071480;28;19940;-57
2022/12/17 19:04:15;;;;;;;;;;;;;;;-5.85;74.27;99135.47;5070479;28;20039;-61
2022/12/17 19:06:47;;;;;;;;;;;;;;;-5.78;74.11;99134.78;5070074;28;19967;-58
2022/12/17 19:09:19;;;;;;;;;;;;;;;-5.79;74.69;99139.25;5069041;28;19932;-57
2022/12/17 19:11:49;;;;;;;;;;;;;;;-6.07;74.76;99144.25;5068837;28;19929;-58
2022/12/17 19:14:20;;;;;;;;;;;;;;;-6.08;74.41;99142.59;5047368;28;20097;-57
2022/12/17 19:16:50;;;;;;;;;;;;;;;-6.01;75.15;99146.22;5046080;28;20300;-57
2022/12/17 19:19:19;;;;;;;;;;;;;;;-5.93;74.61;99153.25;5064719;28;19925;-61
2022/12/17 19:21:50;;;;;;;;;;;;;;;-6.08;74.44;99153.16;5066440;28;19935;-57
2022/12/17 19:24:20;;;;;;;;;;;;;;;-5.97;74.66;99147.47;5067103;28;19933;-57
2022/12/17 19:26:48;;;;;;;;;;;;;;;-5.92;74.64;99146.97;5048392;28;19931;-58
2022/12/17 19:29:19;;;;;;;;;;;;;;;-5.96;74.68;99154.44;5061439;28;19969;-58
2022/12/17 19:31:48;;;;;;;;;;;;;;;-6.07;74.36;99146.91;5063327;28;19933;-57
2022/12/17 19:34:17;;;;;;;;;;;;;;;-6.12;74.22;99152.72;5048890;28;20007;-58
2022/12/17 19:36:46;;;;;;;;;;;;;;;-6.27;75.13;99148.34;5069912;28;19928;-60
2022/12/17 19:39:40;;;;;;;;;;;;;;;-6.30;75.25;99153.97;5065616;28;19928;-57
2022/12/17 19:42:34;;;;;;;;;;;;;;;-6.30;75.06;99153.97;5063265;28;20317;-57
2022/12/17 19:45:05;;;;;;;;;;;;;;;-6.35;74.96;99159.75;5065344;28;20002;-57
2022/12/17 19:47:36;;;;;;;;;;;;;;;-6.37;74.11;99165.22;5068104;28;19931;-57
2022/12/17 19:50:05;;;;;;;;;;;;;;;-6.43;74.39;99160.63;5067597;28;19932;-59
2022/12/17 19:52:33;;;;;;;;;;;;;;;-6.49;74.94;99160.50;5064757;28;19925;-57
2022/12/17 19:55:03;;;;;;;;;;;;;;;-6.35;74.51;99157.13;5063585;28;19924;-57
2022/12/17 19:57:31;;;;;;;;;;;;;;;-6.29;73.97;99164.34;5063204;28;19932;-57
2022/12/17 20:00:00;;;;;;;;;;;;;;;-6.43;74.00;99170.38;5038301;28;19925;-57
2022/12/17 20:02:29;;;;;;;;;;;;;;;-6.36;74.38;99171.34;5063450;28;19924;-57
2022/12/17 20:05:00;;;;;;;;;;;;;;;-6.49;74.89;99171.91;5044940;28;20003;-57
2022/12/17 20:07:28;;;;;;;;;;;;;;;-6.45;73.78;99173.19;5048564;28;19932;-58
2022/12/17 20:09:57;;;;;;;;;;;;;;;-6.53;74.06;99169.75;5065745;28;19928;-58
2022/12/17 20:12:26;;;;;;;;;;;;;;;-6.48;74.29;99162.97;5066842;28;19936;-58
2022/12/17 20:14:55;;;;;;;;;;;;;;;-6.50;74.40;99170.22;5066058;28;19928;-57
2022/12/17 20:17:25;;;;;;;;;;;;;;;-6.49;73.97;99166.59;5065810;28;19924;-57
2022/12/17 20:19:55;;;;;;;;;;;;;;;-6.63;74.03;99160.19;5066668;28;19924;-58
2022/12/17 20:22:26;;;;;;;;;;;;;;;-6.67;74.58;99158.88;5070290;28;20600;-58
2022/12/17 20:24:54;;;;;;;;;;;;;;;-6.58;74.39;99162.34;5046417;28;19953;-58
2022/12/17 20:27:24;;;;;;;;;;;;;;;-6.52;74.31;99171.41;5066850;28;19946;-58
2022/12/17 20:29:54;;;;;;;;;;;;;;;-6.39;73.78;99161.94;5046715;28;19924;-57
2022/12/17 20:32:22;;;;;;;;;;;;;;;-6.35;72.81;99163.22;5061246;28;19935;-57
2022/12/17 20:34:51;;;;;;;;;;;;;;;-6.41;72.95;99165.75;5057058;28;20327;-60
2022/12/17 20:37:20;;;;;;;;;;;;;;;-6.63;73.13;99164.66;5069200;28;19931;-57
2022/12/17 20:39:49;;;;;;;;;;;;;;;-6.83;73.43;99163.41;5064273;28;19932;-57
2022/12/17 20:42:17;;;;;;;;;;;;;;;-6.72;74.20;99165.69;5066949;28;19964;-58
2022/12/17 20:44:46;;;;;;;;;;;;;;;-6.53;73.04;99162.66;5058969;28;20626;-57
2022/12/17 20:50:14;;;;;;;;;;;;;;;-6.56;72.17;99164.81;5056360;28;19929;-58
2022/12/17 20:53:07;;;;;;;;;;;;;;;-6.61;72.72;99166.13;5065837;28;20404;-59
2022/12/17 20:55:36;;;;;;;;;;;;;;;-6.84;73.09;99169.69;5078435;28;19924;-58
2022/12/17 20:58:05;;;;;;;;;;;;;;;-6.72;73.02;99166.50;5049822;28;20316;-57
2022/12/17 21:00:34;;;;;;;;;;;;;;;-6.68;72.75;99172.28;5066644;28;19928;-57
2022/12/17 21:03:04;;;;;;;;;;;;;;;-7.02;73.29;99170.72;5069541;28;19924;-57
2022/12/17 21:05:37;;;;;;;;;;;;;;;-6.93;73.64;99180.25;5068277;28;20446;-57
2022/12/17 21:08:05;;;;;;;;;;;;;;;-6.89;73.23;99176.28;5068525;28;19926;-57
2022/12/17 21:10:34;;;;;;;;;;;;;;;-6.95;73.33;99168.22;5069654;28;19924;-57
2022/12/17 21:16:15;;;;;;;;;;;;;;;-6.78;72.83;99163.72;5064075;28;19986;-57
2022/12/17 21:18:44;;;;;;;;;;;;;;;-7.13;74.69;99165.78;5063216;28;20308;-58
2022/12/17 21:24:08;;;;;;;;;;;;;;;-7.46;74.80;99171.06;5050685;28;19982;-57
2022/12/17 21:26:37;;;;;;;;;;;;;;;-7.29;74.69;99173.72;5068855;28;20407;-58
2022/12/17 21:29:05;;;;;;;;;;;;;;;-7.22;74.45;99177.34;5050861;28;20317;-57
2022/12/17 21:31:59;;;;;;;;;;;;;;;-7.25;74.47;99190.88;5065068;28;20029;-58
2022/12/17 21:34:31;;;;;;;;;;;;;;;-7.16;74.86;99200.44;5052016;28;19929;-59
2022/12/17 21:37:03;;;;;;;;;;;;;;;-7.14;73.31;99199.28;5061451;28;19929;-58
2022/12/17 21:39:57;;;;;;;;;;;;;;;-7.17;73.93;99204.06;5062365;28;19994;-58
2022/12/17 21:45:14;;;;;;;;;;;;;;;-7.10;74.33;99212.16;5067997;28;19932;-58
2022/12/17 21:47:44;;;;;;;;;;;;;;;-7.37;73.99;99219.41;5063464;28;19928;-57
2022/12/17 21:50:17;;;;;;;;;;;;;;;-7.17;73.61;99217.28;5055315;28;20356;-57
2022/12/17 21:53:10;;;;;;;;;;;;;;;-7.13;73.64;99231.81;5066779;28;20400;-59
2022/12/17 21:55:39;;;;;;;;;;;;;;;-7.16;73.13;99229.50;5069103;28;19925;-59
2022/12/17 21:58:07;;;;;;;;;;;;;;;-7.13;73.94;99239.72;5067104;28;20385;-57
2022/12/17 22:00:35;;;;;;;;;;;;;;;-7.14;73.36;99238.06;5052028;28;19928;-57
2022/12/17 22:03:04;;;;;;;;;;;;;;;-7.16;73.06;99238.22;5068345;28;20447;-59
2022/12/17 22:05:35;;;;;;;;;;;;;;;-7.16;72.87;99240.88;5052023;28;20007;-58
2022/12/17 22:08:03;;;;;;;;;;;;;;;-7.16;72.60;99242.69;5070584;28;20400;-57
2022/12/17 22:10:32;;;;;;;;;;;;;;;-7.20;72.53;99239.53;5072574;28;20557;-57
2022/12/17 22:16:05;;;;;;;;;;;;;;;-7.48;73.32;99241.69;5066411;28;19924;-59
2022/12/17 22:18:59;;;;;;;;;;;;;;;-7.35;72.58;99256.22;5072543;28;19931;-58
2022/12/17 22:21:32;;;;;;;;;;;;;;;-7.38;72.85;99250.28;5054341;28;19924;-60
2022/12/17 22:24:00;;;;;;;;;;;;;;;-7.33;72.83;99251.59;5065914;28;19929;-57
2022/12/17 22:26:28;;;;;;;;;;;;;;;-7.26;72.54;99250.78;5071446;28;19924;-57
2022/12/17 22:28:56;;;;;;;;;;;;;;;-7.10;72.30;99243.84;5072716;28;19970;-57
2022/12/17 22:34:23;;;;;;;;;;;;;;;-7.32;72.00;99250.63;4982359;28;20001;-58
2022/12/17 22:37:13;;;;;;;;;;;;;;;-7.43;72.77;99263.13;5063020;28;19924;-58
2022/12/17 22:40:01;;;;;;;;;;;;;;;-7.53;73.00;99254.53;5072359;28;20029;-57
2022/12/17 22:46:04;;;;;;;;;;;;;;;-7.63;72.81;99272.34;5064329;28;19925;-57
2022/12/17 22:48:34;;;;;;;;;;;;;;;-7.71;72.42;99273.16;5070819;28;19931;-58
2022/12/17 22:51:28;;;;;;;;;;;;;;;-7.52;72.10;99269.38;5071960;28;19924;-58
2022/12/17 22:54:09;;;;;;;;;;;;;;;-7.54;72.54;99271.38;5048281;28;19928;-58
2022/12/17 22:56:39;;;;;;;;;;;;;;;-7.80;72.34;99271.47;5071778;28;19932;-58
2022/12/17 22:59:27;;;;;;;;;;;;;;;-7.72;72.16;99265.41;5052718;28;19924;-57
2022/12/17 23:01:56;;;;;;;;;;;;;;;-7.53;72.85;99267.75;5054619;28;19924;-58
2022/12/17 23:04:24;;;;;;;;;;;;;;;-7.66;72.64;99270.03;5071789;28;19925;-57
2022/12/17 23:06:53;;;;;;;;;;;;;;;-7.74;72.32;99275.28;5070057;28;19981;-57
2022/12/17 23:09:27;;;;;;;;;;;;;;;-8.02;72.87;99267.59;5064899;28;19943;-57
2022/12/17 23:11:55;;;;;;;;;;;;;;;-7.88;72.27;99263.56;5060350;28;19935;-57
2022/12/17 23:14:24;;;;;;;;;;;;;;;-7.91;72.11;99259.41;5071709;28;20439;-57
2022/12/17 23:19:44;;;;;;;;;;;;;;;-7.96;72.12;99251.13;5070613;28;20285;-61
2022/12/17 23:22:16;;;;;;;;;;;;;;;-7.93;72.99;99242.91;5070222;28;19925;-57
2022/12/17 23:24:50;;;;;;;;;;;;;;;-7.94;72.86;99245.69;5071454;28;19929;-57
2022/12/17 23:27:19;;;;;;;;;;;;;;;-8.15;72.72;99235.56;5066574;28;19928;-57
2022/12/17 23:29:50;;;;;;;;;;;;;;;-8.10;73.16;99230.66;5070300;28;20284;-57
2022/12/17 23:32:18;;;;;;;;;;;;;;;-8.05;72.51;99231.00;5068276;28;19974;-57
2022/12/17 23:34:47;;;;;;;;;;;;;;;-8.08;71.62;99239.25;5070951;28;20400;-56
2022/12/17 23:37:16;;;;;;;;;;;;;;;-8.19;72.14;99237.72;5069633;28;19925;-57
2022/12/17 23:39:44;;;;;;;;;;;;;;;-8.20;71.98;99237.88;5061927;28;19939;-57
2022/12/17 23:42:18;;;;;;;;;;;;;;;-8.30;72.35;99243.28;5067010;28;19933;-57
2022/12/17 23:44:46;;;;;;;;;;;;;;;-8.15;72.86;99253.19;5071402;28;20400;-57
2022/12/17 23:47:39;;;;;;;;;;;;;;;-8.10;72.31;99258.81;5067717;28;20620;-57
2022/12/17 23:50:09;;;;;;;;;;;;;;;-8.13;71.81;99273.16;5048832;28;19929;-57
2022/12/17 23:52:37;;;;;;;;;;;;;;;-8.22;72.32;99263.56;5048723;28;19976;-57
2022/12/17 23:55:05;;;;;;;;;;;;;;;-8.20;72.01;99266.88;5049399;28;19925;-56
2022/12/17 23:57:34;;;;;;;;;;;;;;;-8.18;71.87;99270.19;5046644;28;19925;-57
